Time;durP1;ratioP1;P1;durP2;ratioP2;P2;SDS_P1;SDS_P2;PMS_P1;PMS_P2;Temp;Humidity;BMP_temperature;BMP_pressure;BME280_temperature;BME280_humidity;BME280_pressure;Samples;Min_cycle;Max_cycle;Signal;HPM_P1;HPM_P2
2022/12/20 00:01:25;;;;;;;21.70;11.10;;;4.80;99.90;;;;;;5097457;28;20197;-80
2022/12/20 00:03:53;;;;;;;21.83;12.30;;;4.90;99.90;;;;;;5097433;28;20221;-82
2022/12/20 00:06:21;;;;;;;21.80;11.30;;;4.90;99.90;;;;;;5100061;28;20217;-82
2022/12/20 00:08:53;;;;;;;23.47;11.90;;;4.80;99.90;;;;;;5118053;28;20220;-82
2022/12/20 00:11:21;;;;;;;20.10;11.97;;;4.80;99.90;;;;;;5117508;28;20201;-81
2022/12/20 00:13:48;;;;;;;18.97;10.93;;;4.90;99.90;;;;;;5118371;28;20204;-80
2022/12/20 00:16:17;;;;;;;22.77;11.20;;;5.10;99.90;;;;;;5118523;28;20197;-80
2022/12/20 00:18:44;;;;;;;20.67;11.87;;;5.20;99.90;;;;;;5118136;28;20223;-82
2022/12/20 00:21:13;;;;;;;21.97;12.23;;;5.20;99.90;;;;;;5118506;28;20197;-81
2022/12/20 00:23:40;;;;;;;22.70;12.23;;;5.20;99.90;;;;;;5118509;28;20620;-81
2022/12/20 00:26:09;;;;;;;21.53;12.10;;;5.20;99.90;;;;;;5117900;28;20714;-81
2022/12/20 00:28:38;;;;;;;22.30;12.07;;;5.10;99.90;;;;;;5118270;28;20217;-80
2022/12/20 00:31:07;;;;;;;23.57;12.37;;;5.10;99.90;;;;;;5118253;28;20201;-81
2022/12/20 00:33:34;;;;;;;24.53;12.83;;;5.10;99.90;;;;;;5117961;28;20205;-82
2022/12/20 00:36:01;;;;;;;21.97;12.10;;;5.10;99.90;;;;;;5117738;28;20571;-81
2022/12/20 00:38:28;;;;;;;22.10;11.90;;;5.40;99.90;;;;;;5117652;28;20231;-82
2022/12/20 00:41:03;;;;;;;24.10;12.77;;;5.70;99.90;;;;;;5117752;28;20240;-82
2022/12/20 00:43:30;;;;;;;21.87;12.83;;;5.70;99.90;;;;;;5117383;28;20200;-82
2022/12/20 00:45:59;;;;;;;22.10;12.40;;;5.60;99.90;;;;;;5117430;28;20217;-82
2022/12/20 00:48:26;;;;;;;23.27;13.43;;;5.40;99.90;;;;;;5117856;28;20221;-81
2022/12/20 00:50:53;;;;;;;24.10;13.57;;;5.20;99.90;;;;;;5117424;28;20215;-82
2022/12/20 00:53:19;;;;;;;20.63;12.47;;;5.20;99.90;;;;;;5116867;28;20197;-81
2022/12/20 00:55:47;;;;;;;22.20;12.63;;;5.20;99.90;;;;;;5117764;28;20200;-81
2022/12/20 00:58:14;;;;;;;23.60;12.70;;;5.30;99.90;;;;;;5117392;28;20727;-81
2022/12/20 01:00:40;;;;;;;24.97;12.40;;;5.30;99.90;;;;;;5117863;28;20196;-82
2022/12/20 01:03:09;;;;;;;22.07;12.57;;;5.40;99.90;;;;;;5117498;28;20208;-81
2022/12/20 01:05:36;;;;;;;22.43;12.73;;;5.40;99.90;;;;;;5117601;28;20571;-82
2022/12/20 01:08:02;;;;;;;20.40;11.83;;;5.90;99.90;;;;;;5116769;28;20217;-80
2022/12/20 01:10:29;;;;;;;22.00;12.67;;;6.00;99.90;;;;;;5116264;28;20201;-81
2022/12/20 01:12:56;;;;;;;22.20;11.83;;;6.00;99.90;;;;;;5116863;28;20673;-80
2022/12/20 01:15:23;;;;;;;23.77;10.87;;;6.30;99.90;;;;;;5116592;28;20205;-80
2022/12/20 01:17:50;;;;;;;20.33;11.10;;;6.00;99.90;;;;;;5116566;28;20217;-82
2022/12/20 01:20:18;;;;;;;20.97;11.30;;;6.00;99.90;;;;;;5116473;28;20258;-80
2022/12/20 01:22:45;;;;;;;22.23;12.00;;;6.00;99.90;;;;;;5116371;28;20213;-81
2022/12/20 01:25:12;;;;;;;18.97;11.17;;;6.00;99.90;;;;;;5116125;28;20205;-81
2022/12/20 01:27:38;;;;;;;19.97;11.30;;;5.80;99.90;;;;;;5115751;28;20228;-82
2022/12/20 01:30:06;;;;;;;22.33;10.80;;;5.80;99.90;;;;;;5116014;28;20211;-81
2022/12/20 01:32:33;;;;;;;19.63;11.77;;;5.80;99.90;;;;;;5115876;28;20209;-81
2022/12/20 01:35:00;;;;;;;21.77;11.27;;;6.00;99.90;;;;;;5116532;28;20205;-81
2022/12/20 01:37:28;;;;;;;19.87;12.00;;;6.10;99.90;;;;;;5116013;28;20225;-82
2022/12/20 01:39:55;;;;;;;22.40;12.10;;;6.20;99.90;;;;;;5116202;28;20201;-82
2022/12/20 01:42:22;;;;;;;19.67;11.13;;;6.40;99.90;;;;;;5115962;28;20211;-80
2022/12/20 01:44:56;;;;;;;20.23;11.60;;;6.40;99.90;;;;;;5116048;28;20207;-82
2022/12/20 01:47:25;;;;;;;18.43;11.33;;;6.20;99.90;;;;;;5115935;28;20239;-82
2022/12/20 01:49:54;;;;;;;22.33;11.77;;;6.30;99.90;;;;;;5115556;28;20624;-80
2022/12/20 01:52:26;;;;;;;21.47;12.03;;;6.10;99.90;;;;;;5104846;28;20201;-82
2022/12/20 01:55:01;;;;;;;22.07;11.90;;;6.20;99.90;;;;;;5088440;28;20220;-82
2022/12/20 01:57:34;;;;;;;19.27;11.37;;;6.30;99.90;;;;;;5097395;28;20246;-82
2022/12/20 02:00:01;;;;;;;19.87;10.80;;;6.20;99.90;;;;;;5102660;28;20243;-81
2022/12/20 02:02:28;;;;;;;20.20;12.03;;;6.30;99.90;;;;;;5102964;28;20687;-82
2022/12/20 02:04:55;;;;;;;23.13;11.97;;;6.50;99.90;;;;;;5109622;28;20207;-81
2022/12/20 02:07:26;;;;;;;20.07;11.57;;;6.60;99.90;;;;;;5093137;28;20607;-82
2022/12/20 02:09:58;;;;;;;21.33;11.33;;;6.50;99.90;;;;;;5082491;28;20213;-80
2022/12/20 02:12:26;;;;;;;20.37;11.13;;;6.60;99.90;;;;;;5073807;28;20670;-81
2022/12/20 02:15:08;;;;;;;20.23;12.43;;;6.50;99.90;;;;;;5074055;28;20206;-82
2022/12/20 02:17:45;;;;;;;19.27;11.10;;;7.10;99.90;;;;;;5073799;28;20943;-81
2022/12/20 02:20:37;;;;;;;18.47;10.63;;;7.40;99.90;;;;;;5088617;28;20204;-81
2022/12/20 02:23:44;;;;;;;17.93;10.10;;;7.60;99.90;;;;;;5091867;28;20201;-81
2022/12/20 02:26:31;;;;;;;18.73;9.67;;;7.70;99.90;;;;;;5083904;28;20236;-82
2022/12/20 02:29:16;;;;;;;18.90;9.83;;;7.70;99.90;;;;;;5094915;28;20360;-82
2022/12/20 02:31:50;;;;;;;17.33;9.90;;;7.90;99.90;;;;;;5093662;28;20657;-81
2022/12/20 02:34:17;;;;;;;16.03;9.27;;;7.90;99.90;;;;;;5094126;28;20206;-79
2022/12/20 02:36:44;;;;;;;16.37;9.93;;;7.70;99.90;;;;;;5093088;28;20201;-81
2022/12/20 02:39:13;;;;;;;17.83;9.93;;;7.80;99.90;;;;;;5094961;28;20567;-80
2022/12/20 02:41:45;;;;;;;17.10;10.07;;;7.80;99.90;;;;;;5092680;28;20209;-81
2022/12/20 02:47:04;;;;;;;18.73;9.40;;;7.60;99.90;;;;;;5072469;28;20236;-81
2022/12/20 02:49:34;;;;;;;18.77;9.83;;;7.70;99.90;;;;;;5105296;28;20197;-82
2022/12/20 02:52:02;;;;;;;17.67;9.57;;;7.60;99.90;;;;;;5108172;28;20212;-81
2022/12/20 02:54:29;;;;;;;17.43;10.27;;;7.80;99.90;;;;;;5085823;28;20547;-81
2022/12/20 02:57:00;;;;;;;18.60;9.80;;;7.70;99.90;;;;;;5089118;28;20234;-81
2022/12/20 02:59:32;;;;;;;17.77;10.57;;;7.60;99.90;;;;;;5074369;28;20216;-82
2022/12/20 03:01:59;;;;;;;17.27;9.43;;;7.40;99.90;;;;;;5072426;28;20202;-80
2022/12/20 03:04:30;;;;;;;18.00;10.60;;;7.50;99.90;;;;;;5099199;28;20193;-82
2022/12/20 03:07:01;;;;;;;16.97;10.80;;;7.60;99.90;;;;;;5108294;28;20227;-81
2022/12/20 03:09:30;;;;;;;17.10;8.83;;;7.80;99.90;;;;;;5090979;28;20197;-80
2022/12/20 03:11:57;;;;;;;17.13;9.63;;;7.60;99.90;;;;;;5098193;28;20194;-81
2022/12/20 03:14:25;;;;;;;16.70;9.47;;;7.80;99.90;;;;;;5081832;28;20206;-82
2022/12/20 03:16:52;;;;;;;17.00;9.87;;;7.60;99.90;;;;;;5078578;28;20230;-81
2022/12/20 03:19:19;;;;;;;19.43;10.87;;;7.70;99.90;;;;;;5076972;28;20206;-80
2022/12/20 03:21:47;;;;;;;20.17;10.47;;;7.80;99.90;;;;;;5077938;28;20292;-82
2022/12/20 03:24:14;;;;;;;19.10;10.00;;;7.70;99.90;;;;;;5078131;28;20198;-82
2022/12/20 03:26:42;;;;;;;18.00;9.93;;;7.60;99.90;;;;;;5077069;28;20218;-81
2022/12/20 03:29:09;;;;;;;17.23;10.37;;;7.70;99.90;;;;;;5078152;28;20206;-81
2022/12/20 03:31:37;;;;;;;16.90;9.63;;;7.50;99.90;;;;;;5078033;28;20206;-82
2022/12/20 03:34:05;;;;;;;17.03;10.63;;;7.40;99.90;;;;;;5077605;28;20212;-81
2022/12/20 03:36:32;;;;;;;18.90;11.13;;;7.30;99.90;;;;;;5077615;28;20206;-81
2022/12/20 03:39:00;;;;;;;19.23;10.40;;;7.30;99.90;;;;;;5077313;28;20580;-81
2022/12/20 03:41:33;;;;;;;18.73;11.03;;;7.60;99.90;;;;;;5077551;28;20204;-81
2022/12/20 03:44:00;;;;;;;18.87;10.70;;;7.60;99.90;;;;;;5077092;28;20216;-82
2022/12/20 03:46:27;;;;;;;16.40;9.20;;;7.50;99.90;;;;;;5078607;28;20202;-81
2022/12/20 03:48:54;;;;;;;16.73;9.70;;;7.20;99.90;;;;;;5077469;28;20218;-81
2022/12/20 03:51:21;;;;;;;17.90;10.03;;;7.30;99.90;;;;;;5078142;28;20233;-81
2022/12/20 03:53:47;;;;;;;15.90;9.77;;;7.40;99.90;;;;;;5078446;28;20214;-81
2022/12/20 03:56:16;;;;;;;17.33;9.40;;;7.40;99.90;;;;;;5078137;28;20197;-82
2022/12/20 03:58:43;;;;;;;17.57;10.57;;;7.30;99.90;;;;;;5078488;28;20245;-81
2022/12/20 04:01:21;;;;;;;19.10;10.40;;;7.50;99.90;;;;;;5078189;28;20271;-81
2022/12/20 04:03:47;;;;;;;15.77;9.60;;;7.50;99.90;;;;;;5077930;28;20259;-82
2022/12/20 04:06:14;;;;;;;17.43;10.03;;;7.50;99.90;;;;;;5078725;28;20210;-81
2022/12/20 04:08:41;;;;;;;16.73;9.77;;;7.60;99.90;;;;;;5078936;28;20238;-82
2022/12/20 04:11:18;;;;;;;18.20;10.10;;;7.70;99.90;;;;;;5077754;28;20213;-81
2022/12/20 04:13:48;;;;;;;17.70;10.67;;;7.50;99.90;;;;;;5078040;28;20201;-81
2022/12/20 04:16:17;;;;;;;18.80;9.97;;;7.40;99.90;;;;;;5078272;28;20197;-81
2022/12/20 04:18:44;;;;;;;16.80;9.47;;;7.50;99.90;;;;;;5077807;28;20218;-81
2022/12/20 04:21:13;;;;;;;19.17;11.07;;;7.60;99.90;;;;;;5076762;28;20203;-82
2022/12/20 04:23:41;;;;;;;17.07;10.77;;;7.50;99.90;;;;;;5077624;28;20205;-81
2022/12/20 04:26:09;;;;;;;18.47;10.23;;;7.50;99.90;;;;;;5077274;28;20208;-82
2022/12/20 04:28:36;;;;;;;18.57;9.33;;;7.50;99.90;;;;;;5077781;28;20313;-82
2022/12/20 04:31:05;;;;;;;17.30;10.13;;;7.50;99.90;;;;;;5077600;28;20565;-81
2022/12/20 04:33:32;;;;;;;17.73;9.70;;;7.60;99.90;;;;;;5077202;28;20202;-82
2022/12/20 04:35:59;;;;;;;18.03;10.53;;;7.80;99.90;;;;;;5077731;28;20198;-83
2022/12/20 04:38:26;;;;;;;17.07;10.97;;;7.80;99.90;;;;;;5077066;28;20227;-81
2022/12/20 04:40:54;;;;;;;15.57;9.77;;;7.80;99.90;;;;;;5077230;28;20209;-82
2022/12/20 04:43:22;;;;;;;17.63;10.30;;;7.90;99.90;;;;;;5077428;28;20572;-82
2022/12/20 04:45:51;;;;;;;18.17;10.17;;;7.80;99.90;;;;;;5077686;28;20655;-82
2022/12/20 04:48:20;;;;;;;16.90;9.80;;;7.80;99.90;;;;;;5076913;28;20226;-81
2022/12/20 04:50:49;;;;;;;19.00;10.37;;;8.00;99.90;;;;;;5077462;28;20673;-81
2022/12/20 04:56:00;;;;;;;18.47;10.57;;;8.20;99.90;;;;;;5077685;28;20265;-81
2022/12/20 04:58:27;;;;;;;17.53;11.00;;;8.00;99.90;;;;;;5076915;28;20589;-82
2022/12/20 05:00:54;;;;;;;18.57;10.90;;;8.10;99.90;;;;;;5077602;28;20587;-82
2022/12/20 05:03:24;;;;;;;17.00;10.77;;;8.20;99.90;;;;;;5077441;28;20209;-81
2022/12/20 05:05:51;;;;;;;18.70;11.53;;;8.20;99.90;;;;;;5076840;28;20206;-80
2022/12/20 05:08:18;;;;;;;17.07;9.93;;;8.30;99.90;;;;;;5077578;28;20226;-82
2022/12/20 05:10:45;;;;;;;18.20;10.17;;;8.30;99.90;;;;;;5077852;28;20538;-81
2022/12/20 05:13:12;;;;;;;17.63;10.23;;;8.50;99.90;;;;;;5080143;28;20193;-82
2022/12/20 05:15:38;;;;;;;18.70;9.73;;;8.50;99.90;;;;;;5091733;28;20202;-82
2022/12/20 05:18:05;;;;;;;16.43;9.23;;;8.30;99.90;;;;;;5096730;28;20209;-80
2022/12/20 05:20:33;;;;;;;19.93;10.87;;;8.40;99.90;;;;;;5104152;28;20208;-82
2022/12/20 05:28:31;;;;;;;16.60;10.47;;;8.60;99.90;;;;;;5086251;28;20225;-82
2022/12/20 05:30:58;;;;;;;17.10;10.40;;;8.50;99.90;;;;;;5091059;28;20303;-82
2022/12/20 05:33:25;;;;;;;17.00;10.00;;;8.60;99.90;;;;;;5085999;28;20216;-81
2022/12/20 05:35:53;;;;;;;17.50;9.73;;;8.50;99.90;;;;;;5076802;28;20558;-82
2022/12/20 05:38:20;;;;;;;19.47;10.73;;;8.60;99.90;;;;;;5074556;28;20218;-82
2022/12/20 05:40:48;;;;;;;17.60;10.63;;;8.50;99.90;;;;;;5075356;28;20198;-81
2022/12/20 05:43:15;;;;;;;16.67;10.50;;;8.40;99.90;;;;;;5076071;28;20199;-82
2022/12/20 05:45:46;;;;;;;16.17;9.53;;;8.50;99.90;;;;;;5075055;28;20209;-82
2022/12/20 05:48:12;;;;;;;18.53;10.77;;;8.40;99.90;;;;;;5075842;28;20237;-82
2022/12/20 05:50:39;;;;;;;21.80;10.73;;;8.40;99.90;;;;;;5076114;28;20221;-81
2022/12/20 05:53:07;;;;;;;17.20;10.77;;;8.50;99.90;;;;;;5073540;28;20697;-81
2022/12/20 05:55:34;;;;;;;16.13;9.87;;;8.60;99.90;;;;;;5075957;28;20206;-81
2022/12/20 05:58:01;;;;;;;15.50;9.67;;;8.60;99.90;;;;;;5076043;28;20615;-82
2022/12/20 06:00:28;;;;;;;17.47;9.80;;;8.70;99.90;;;;;;5076514;28;20696;-81
2022/12/20 06:02:55;;;;;;;18.90;10.50;;;8.50;99.90;;;;;;5079103;28;20575;-82
2022/12/20 06:05:21;;;;;;;18.33;10.27;;;8.60;99.90;;;;;;5091538;28;20194;-82
2022/12/20 06:07:49;;;;;;;15.13;9.77;;;8.70;99.90;;;;;;5096655;28;20221;-80
2022/12/20 06:10:17;;;;;;;18.10;9.77;;;8.60;99.90;;;;;;5096369;28;20206;-82
2022/12/20 06:12:44;;;;;;;16.10;9.23;;;8.50;99.90;;;;;;5096099;28;20208;-82
2022/12/20 06:15:12;;;;;;;19.80;10.80;;;8.50;99.90;;;;;;5096288;28;20642;-81
2022/12/20 06:17:38;;;;;;;16.03;10.07;;;8.50;99.90;;;;;;5096717;28;20304;-80
2022/12/20 06:20:07;;;;;;;14.43;9.47;;;8.50;99.90;;;;;;5095802;28;20198;-82
2022/12/20 06:22:36;;;;;;;16.50;10.17;;;8.60;99.90;;;;;;5095906;28;20548;-82
2022/12/20 06:25:03;;;;;;;17.70;10.70;;;8.50;99.90;;;;;;5096141;28;20201;-81
2022/12/20 06:27:31;;;;;;;16.73;10.33;;;8.50;99.90;;;;;;5096064;28;20234;-82
2022/12/20 06:29:58;;;;;;;16.93;10.03;;;8.50;99.90;;;;;;5096052;28;20294;-82
2022/12/20 06:32:25;;;;;;;16.00;9.47;;;8.40;99.90;;;;;;5095767;28;20563;-82
2022/12/20 06:34:52;;;;;;;15.53;9.43;;;8.70;99.90;;;;;;5096343;28;20217;-82
2022/12/20 06:37:18;;;;;;;17.50;10.03;;;8.70;99.90;;;;;;5095821;28;20221;-81
2022/12/20 06:39:45;;;;;;;19.73;10.93;;;8.60;99.90;;;;;;5095564;28;20201;-82
2022/12/20 06:42:12;;;;;;;15.57;9.83;;;8.50;99.90;;;;;;5095840;28;20205;-81
2022/12/20 06:44:40;;;;;;;18.40;10.60;;;8.40;99.90;;;;;;5095361;28;20208;-82
2022/12/20 06:47:07;;;;;;;16.83;10.17;;;8.50;99.90;;;;;;5095764;28;20603;-82
2022/12/20 06:49:34;;;;;;;15.33;9.83;;;8.40;99.90;;;;;;5095903;28;20685;-82
2022/12/20 06:52:00;;;;;;;17.60;10.97;;;8.30;99.90;;;;;;5095997;28;20204;-81
2022/12/20 06:54:27;;;;;;;17.70;9.57;;;8.40;99.90;;;;;;5095992;28;20201;-82
2022/12/20 06:56:54;;;;;;;16.53;9.60;;;8.30;99.90;;;;;;5095956;28;20224;-82
2022/12/20 06:59:21;;;;;;;14.27;9.50;;;8.40;99.90;;;;;;5095421;28;20205;-82
2022/12/20 07:01:49;;;;;;;17.90;10.40;;;8.40;99.90;;;;;;5095093;28;20200;-81
2022/12/20 07:04:16;;;;;;;18.90;10.33;;;8.70;99.90;;;;;;5095422;28;20202;-82
2022/12/20 07:06:43;;;;;;;17.37;9.60;;;8.50;99.90;;;;;;5095076;28;20277;-82
2022/12/20 07:09:09;;;;;;;17.57;11.07;;;8.60;99.90;;;;;;5095546;28;20236;-81
2022/12/20 07:11:38;;;;;;;19.20;10.37;;;8.90;99.90;;;;;;5095184;28;20190;-81
2022/12/20 07:14:05;;;;;;;20.43;10.83;;;8.70;99.90;;;;;;5095621;28;20208;-80
2022/12/20 07:16:32;;;;;;;17.00;10.73;;;8.60;99.90;;;;;;5095495;28;20210;-82
2022/12/20 07:19:00;;;;;;;18.77;10.50;;;8.60;99.90;;;;;;5095803;28;20198;-80
2022/12/20 07:21:26;;;;;;;18.03;10.57;;;8.50;99.90;;;;;;5095264;28;20197;-80
2022/12/20 07:23:55;;;;;;;18.00;10.33;;;8.60;99.90;;;;;;5095914;28;20193;-80
2022/12/20 07:26:21;;;;;;;17.20;9.50;;;8.70;99.90;;;;;;5095114;28;20202;-81
2022/12/20 07:28:48;;;;;;;17.03;10.23;;;8.80;99.90;;;;;;5095134;28;20781;-81
2022/12/20 07:31:15;;;;;;;16.93;10.43;;;8.60;99.90;;;;;;5094839;28;20200;-80
2022/12/20 07:33:42;;;;;;;16.27;10.10;;;8.60;99.90;;;;;;5095055;28;20208;-80
2022/12/20 07:36:12;;;;;;;17.23;10.33;;;8.60;99.90;;;;;;5095073;28;20288;-80
2022/12/20 07:38:39;;;;;;;14.83;9.20;;;8.70;99.90;;;;;;5095436;28;20223;-82
2022/12/20 07:41:08;;;;;;;16.07;10.20;;;8.60;99.90;;;;;;5095817;28;20201;-81
2022/12/20 07:43:34;;;;;;;14.67;9.27;;;8.70;99.90;;;;;;5095205;28;20209;-81
2022/12/20 07:46:03;;;;;;;16.03;9.87;;;8.80;99.90;;;;;;5094753;28;20208;-81
2022/12/20 07:48:29;;;;;;;16.50;9.83;;;8.70;99.90;;;;;;5094813;28;20225;-80
2022/12/20 07:50:59;;;;;;;15.67;10.20;;;8.70;99.90;;;;;;5095024;28;20572;-82
2022/12/20 07:53:28;;;;;;;18.33;9.90;;;9.10;99.90;;;;;;5094687;28;20262;-81
2022/12/20 07:55:56;;;;;;;16.77;9.70;;;9.10;99.90;;;;;;5094569;28;20201;-81
2022/12/20 07:58:23;;;;;;;16.37;9.23;;;8.80;99.90;;;;;;5098708;28;20229;-82
2022/12/20 08:00:50;;;;;;;15.43;9.90;;;8.80;99.90;;;;;;5098877;28;20205;-82
2022/12/20 08:03:20;;;;;;;15.20;9.60;;;8.80;99.90;;;;;;5097158;28;20206;-82
2022/12/20 08:05:51;;;;;;;14.67;9.27;;;8.80;99.90;;;;;;5097899;28;20587;-82
2022/12/20 08:08:18;;;;;;;16.67;9.63;;;9.00;99.90;;;;;;5096455;28;20594;-82
2022/12/20 08:10:47;;;;;;;16.77;9.57;;;9.00;99.90;;;;;;5097331;28;20219;-81
2022/12/20 08:13:14;;;;;;;17.40;9.27;;;8.80;99.90;;;;;;5096853;28;20241;-82
2022/12/20 08:15:41;;;;;;;15.60;9.10;;;8.90;99.90;;;;;;5118378;28;20197;-81
2022/12/20 08:18:08;;;;;;;17.23;10.00;;;8.80;99.90;;;;;;5105726;28;20244;-82
2022/12/20 08:20:34;;;;;;;16.80;9.93;;;8.80;99.90;;;;;;5077676;28;20205;-82
2022/12/20 08:23:03;;;;;;;12.47;8.63;;;8.80;99.90;;;;;;5078037;28;20489;-82
2022/12/20 08:25:30;;;;;;;15.33;8.70;;;9.10;99.90;;;;;;5076706;28;20232;-80
2022/12/20 08:28:00;;;;;;;15.80;9.33;;;9.00;99.90;;;;;;5077303;28;20225;-81
2022/12/20 08:30:27;;;;;;;13.73;9.17;;;9.10;99.90;;;;;;5076684;28;20214;-80
2022/12/20 08:32:54;;;;;;;13.43;8.23;;;9.40;99.90;;;;;;5076735;28;20568;-80
2022/12/20 08:35:21;;;;;;;12.37;9.00;;;9.30;99.90;;;;;;5084702;28;20212;-81
2022/12/20 08:37:50;;;;;;;11.00;7.63;;;9.50;99.90;;;;;;5108488;28;20223;-80
2022/12/20 08:40:17;;;;;;;12.00;8.40;;;9.30;99.90;;;;;;5115168;28;20572;-81
2022/12/20 08:42:44;;;;;;;12.60;7.60;;;9.40;99.90;;;;;;5092856;28;20208;-81
2022/12/20 08:45:13;;;;;;;14.23;8.43;;;9.30;99.90;;;;;;5096850;28;20201;-80
2022/12/20 08:47:39;;;;;;;13.43;8.00;;;9.40;99.90;;;;;;5078816;28;20597;-80
2022/12/20 08:50:08;;;;;;;14.87;8.63;;;9.40;99.90;;;;;;5076461;28;20226;-81
2022/12/20 08:52:34;;;;;;;12.73;7.90;;;9.30;99.90;;;;;;5076586;28;20213;-81
2022/12/20 08:55:01;;;;;;;14.83;7.80;;;9.40;99.90;;;;;;5076601;28;20210;-80
2022/12/20 08:57:28;;;;;;;15.40;9.00;;;9.40;99.90;;;;;;5086297;28;20224;-81
2022/12/20 08:59:54;;;;;;;11.47;7.27;;;9.60;99.90;;;;;;5104566;28;20196;-81
2022/12/20 09:02:23;;;;;;;11.97;7.73;;;9.60;99.90;;;;;;5098312;28;20492;-82
2022/12/20 09:04:49;;;;;;;12.70;7.77;;;9.70;99.90;;;;;;5103688;28;20198;-80
2022/12/20 09:07:16;;;;;;;14.87;8.03;;;9.70;99.90;;;;;;5099454;28;20586;-80
2022/12/20 09:09:43;;;;;;;12.30;7.53;;;9.70;99.90;;;;;;5110556;28;20216;-81
2022/12/20 09:12:10;;;;;;;11.60;7.70;;;9.90;99.90;;;;;;5109885;28;20212;-81
2022/12/20 09:14:37;;;;;;;12.33;7.40;;;9.90;99.90;;;;;;5096602;28;20569;-81
2022/12/20 09:17:05;;;;;;;12.37;7.70;;;9.70;99.90;;;;;;5095279;28;20228;-81
2022/12/20 09:19:33;;;;;;;12.97;8.07;;;9.70;99.90;;;;;;5104451;28;20280;-81
2022/12/20 09:22:00;;;;;;;17.60;10.50;;;9.90;99.90;;;;;;5094422;28;20208;-80
2022/12/20 09:24:26;;;;;;;17.93;11.00;;;9.90;99.90;;;;;;5078934;28;20479;-81
2022/12/20 09:26:53;;;;;;;14.77;8.93;;;9.90;99.90;;;;;;5075482;28;20224;-80
2022/12/20 09:29:20;;;;;;;13.73;8.37;;;9.90;99.90;;;;;;5075221;28;20232;-79
2022/12/20 09:31:49;;;;;;;13.30;8.30;;;9.90;99.90;;;;;;5074968;28;20206;-80
2022/12/20 09:34:16;;;;;;;10.17;6.47;;;10.00;99.90;;;;;;5092631;28;20291;-80
2022/12/20 09:36:44;;;;;;;10.27;6.77;;;10.20;99.90;;;;;;5096181;28;20675;-80
2022/12/20 09:39:11;;;;;;;10.00;6.43;;;10.40;99.90;;;;;;5095818;28;20206;-81
2022/12/20 09:41:40;;;;;;;10.43;6.63;;;10.30;99.90;;;;;;5096836;28;20220;-80
2022/12/20 09:44:14;;;;;;;11.33;7.40;;;10.20;99.90;;;;;;5095463;28;20209;-80
2022/12/20 09:46:41;;;;;;;10.47;6.47;;;10.10;99.90;;;;;;5097529;28;20209;-81
2022/12/20 09:49:12;;;;;;;10.40;6.73;;;10.30;99.90;;;;;;5095901;28;20233;-81
2022/12/20 09:52:10;;;;;;;12.50;7.13;;;10.30;99.90;;;;;;5096277;28;20194;-82
2022/12/20 09:54:46;;;;;;;10.67;6.23;;;10.30;99.90;;;;;;5096358;28;20204;-80
2022/12/20 09:57:22;;;;;;;12.40;6.17;;;10.30;99.90;;;;;;5095931;28;20257;-80
2022/12/20 09:59:49;;;;;;;10.30;6.33;;;10.30;99.90;;;;;;5096766;28;20208;-82
2022/12/20 10:02:22;;;;;;;10.73;6.03;;;10.50;99.90;;;;;;5096297;28;20212;-81
2022/12/20 10:04:49;;;;;;;7.83;5.77;;;10.50;99.90;;;;;;5102114;28;20583;-79
2022/12/20 10:07:29;;;;;;;9.83;5.83;;;10.50;99.90;;;;;;5092824;28;20763;-80
2022/12/20 10:10:16;;;;;;;10.87;6.23;;;10.70;99.90;;;;;;5095838;28;20225;-80
2022/12/20 10:12:50;;;;;;;10.20;5.93;;;10.70;99.90;;;;;;5075848;28;20221;-80
2022/12/20 10:15:20;;;;;;;9.90;5.97;;;10.70;99.90;;;;;;5073452;28;20214;-81
2022/12/20 10:18:20;;;;;;;9.97;6.60;;;10.80;99.90;;;;;;5078843;28;20225;-81
2022/12/20 10:20:59;;;;;;;7.53;5.43;;;10.60;99.90;;;;;;5095312;28;20199;-80
2022/12/20 10:23:34;;;;;;;11.07;6.17;;;10.60;99.90;;;;;;5091775;28;20224;-81
2022/12/20 10:26:01;;;;;;;9.87;6.53;;;10.70;99.90;;;;;;5073398;28;20208;-81
2022/12/20 10:28:30;;;;;;;11.70;6.40;;;10.80;99.90;;;;;;5075856;28;20237;-81
2022/12/20 10:31:01;;;;;;;7.07;5.20;;;10.80;99.90;;;;;;5075279;28;20293;-81
2022/12/20 10:33:29;;;;;;;8.23;4.87;;;10.70;99.90;;;;;;5074540;28;20206;-82
2022/12/20 10:35:56;;;;;;;8.70;5.63;;;11.00;99.90;;;;;;5075191;28;20206;-82
2022/12/20 10:38:22;;;;;;;8.33;5.47;;;10.90;99.90;;;;;;5076462;28;20264;-81
2022/12/20 10:41:01;;;;;;;9.37;5.70;;;10.90;99.90;;;;;;5077123;28;20198;-80
2022/12/20 10:43:36;;;;;;;8.33;5.20;;;10.80;99.90;;;;;;5074452;28;20217;-80
2022/12/20 10:46:06;;;;;;;8.93;6.33;;;10.80;99.90;;;;;;5075225;28;20198;-81
2022/12/20 10:48:35;;;;;;;8.67;4.83;;;10.80;99.90;;;;;;5076173;28;20252;-82
2022/12/20 10:51:04;;;;;;;8.77;5.53;;;10.90;99.90;;;;;;5074567;28;20293;-80
2022/12/20 10:53:32;;;;;;;9.23;5.30;;;11.20;99.90;;;;;;5074761;28;20232;-82
2022/12/20 10:56:17;;;;;;;7.27;4.80;;;11.10;99.90;;;;;;5073881;28;20205;-80
2022/12/20 10:58:52;;;;;;;7.20;5.13;;;11.10;99.90;;;;;;5075486;28;20261;-81
2022/12/20 11:01:21;;;;;;;11.63;5.50;;;11.20;99.90;;;;;;5075183;28;20212;-82
2022/12/20 11:03:56;;;;;;;8.03;4.93;;;11.20;99.90;;;;;;5074829;28;20220;-81
2022/12/20 11:06:25;;;;;;;10.83;5.27;;;11.10;99.90;;;;;;5075106;28;20205;-82
2022/12/20 11:08:52;;;;;;;7.83;5.10;;;10.90;99.90;;;;;;5081084;28;20223;-80
2022/12/20 11:11:23;;;;;;;7.67;4.97;;;10.70;99.90;;;;;;5106721;28;20206;-81
2022/12/20 11:13:51;;;;;;;8.10;5.83;;;10.60;99.90;;;;;;5087865;28;20198;-82
2022/12/20 11:16:34;;;;;;;7.67;5.13;;;10.70;99.90;;;;;;5075204;28;20207;-81
2022/12/20 11:19:13;;;;;;;9.20;5.00;;;11.00;99.90;;;;;;5075221;28;20214;-80
2022/12/20 11:21:48;;;;;;;6.80;4.90;;;11.10;99.90;;;;;;5074707;28;20561;-81
2022/12/20 11:24:25;;;;;;;7.37;4.70;;;11.10;99.90;;;;;;5075147;28;20296;-81
2022/12/20 11:27:07;;;;;;;7.20;4.90;;;11.40;99.90;;;;;;5075205;28;20230;-80
2022/12/20 11:29:55;;;;;;;6.63;4.57;;;11.40;99.90;;;;;;5074991;28;20218;-82
2022/12/20 11:32:35;;;;;;;6.33;4.50;;;11.40;99.90;;;;;;5078860;28;20255;-81
2022/12/20 11:35:11;;;;;;;6.30;4.70;;;11.70;99.90;;;;;;5079034;28;20202;-81
2022/12/20 11:37:46;;;;;;;7.17;4.87;;;11.60;99.90;;;;;;5078236;28;20226;-80
2022/12/20 11:40:27;;;;;;;7.93;5.00;;;11.70;99.90;;;;;;5077116;28;20214;-81
2022/12/20 11:43:07;;;;;;;8.60;4.97;;;11.70;99.90;;;;;;5077777;28;20207;-81
2022/12/20 11:45:42;;;;;;;6.80;4.80;;;11.60;99.90;;;;;;5077666;28;20216;-82
2022/12/20 11:48:38;;;;;;;6.53;4.77;;;11.60;99.90;;;;;;5082859;28;20252;-82
2022/12/20 11:51:11;;;;;;;7.67;4.90;;;11.70;99.90;;;;;;5101290;28;20217;-79
2022/12/20 11:53:40;;;;;;;8.37;4.67;;;11.60;99.90;;;;;;5095064;28;20587;-81
2022/12/20 11:56:12;;;;;;;9.40;5.00;;;11.50;99.90;;;;;;5098127;28;20198;-81
2022/12/20 11:58:50;;;;;;;7.57;4.30;;;11.60;99.90;;;;;;5092597;28;20261;-80
2022/12/20 12:01:19;;;;;;;5.70;4.30;;;11.50;99.90;;;;;;5076449;28;20190;-82
2022/12/20 12:03:58;;;;;;;7.77;5.00;;;11.40;99.90;;;;;;5077743;28;20202;-81
2022/12/20 12:06:30;;;;;;;7.37;4.57;;;11.50;99.90;;;;;;5075735;28;20202;-81
2022/12/20 12:09:15;;;;;;;7.93;4.60;;;11.40;99.90;;;;;;5076891;28;20688;-81
2022/12/20 12:11:47;;;;;;;6.67;4.97;;;11.40;99.90;;;;;;5077143;28;20198;-80
2022/12/20 12:14:28;;;;;;;6.63;4.20;;;11.40;99.90;;;;;;5077517;28;20578;-81
2022/12/20 12:16:59;;;;;;;7.30;4.40;;;11.40;99.90;;;;;;5077848;28;20229;-81
2022/12/20 12:19:29;;;;;;;6.80;4.07;;;11.10;99.90;;;;;;5078216;28;20206;-80
2022/12/20 12:22:03;;;;;;;8.30;4.60;;;11.10;99.90;;;;;;5077696;28;20237;-82
2022/12/20 12:24:34;;;;;;;6.73;4.80;;;11.10;99.90;;;;;;5078216;28;20667;-82
2022/12/20 12:27:02;;;;;;;7.13;4.53;;;11.20;99.90;;;;;;5078554;28;20240;-81
2022/12/20 12:29:34;;;;;;;8.17;4.40;;;11.20;99.90;;;;;;5078388;28;20233;-80
2022/12/20 12:32:04;;;;;;;8.57;5.10;;;11.20;99.90;;;;;;5078096;28;20293;-80
2022/12/20 12:34:45;;;;;;;8.57;4.77;;;11.30;99.90;;;;;;5078216;28;20206;-81
2022/12/20 12:37:35;;;;;;;9.07;4.80;;;11.40;99.90;;;;;;5077777;28;20229;-81
2022/12/20 12:40:39;;;;;;;7.83;4.60;;;11.40;99.90;;;;;;5077986;28;20206;-81
2022/12/20 12:43:25;;;;;;;7.30;4.80;;;11.50;99.90;;;;;;5076393;28;20216;-81
2022/12/20 12:45:57;;;;;;;6.40;4.57;;;11.60;99.90;;;;;;5077151;28;20242;-80
2022/12/20 12:48:29;;;;;;;7.47;4.50;;;11.70;99.90;;;;;;5077499;28;20230;-80
2022/12/20 12:50:58;;;;;;;8.07;4.83;;;11.60;99.90;;;;;;5077177;28;20218;-81
2022/12/20 12:53:32;;;;;;;8.47;4.73;;;11.60;99.90;;;;;;5077609;28;20298;-82
2022/12/20 12:56:02;;;;;;;6.43;4.63;;;11.70;99.90;;;;;;5077486;28;20206;-82
2022/12/20 12:58:34;;;;;;;8.80;5.27;;;11.80;99.90;;;;;;5076720;28;20241;-81
2022/12/20 13:01:06;;;;;;;7.27;4.87;;;11.70;99.90;;;;;;5077225;28;20206;-80
2022/12/20 13:03:40;;;;;;;7.03;3.93;;;11.60;99.90;;;;;;5076962;28;20651;-82
2022/12/20 13:06:44;;;;;;;6.47;4.70;;;11.50;99.90;;;;;;5077330;28;20202;-81
2022/12/20 13:09:21;;;;;;;7.50;4.87;;;11.30;99.90;;;;;;5077131;28;20309;-81